sensor_id;sensor_type;location;lat;lon;timestamp;P1;durP1;ratioP1;P2;durP2;ratioP2
20454;SDS011;10386;54.314;10.022;2022-08-07T00:00:23;5.70;;;3.70;;
20454;SDS011;10386;54.314;10.022;2022-08-07T00:02:51;6.33;;;3.50;;
20454;SDS011;10386;54.314;10.022;2022-08-07T00:05:19;4.80;;;3.47;;
20454;SDS011;10386;54.314;10.022;2022-08-07T00:07:50;5.93;;;4.23;;
20454;SDS011;10386;54.314;10.022;2022-08-07T00:10:25;7.43;;;4.30;;
20454;SDS011;10386;54.314;10.022;2022-08-07T00:12:58;7.27;;;4.23;;
20454;SDS011;10386;54.314;10.022;2022-08-07T00:15:49;5.03;;;3.53;;
20454;SDS011;10386;54.314;10.022;2022-08-07T00:18:19;8.53;;;3.90;;
20454;SDS011;10386;54.314;10.022;2022-08-07T00:20:54;8.90;;;4.07;;
20454;SDS011;10386;54.314;10.022;2022-08-07T00:23:27;6.23;;;4.47;;
20454;SDS011;10386;54.314;10.022;2022-08-07T00:25:56;10.07;;;4.73;;
20454;SDS011;10386;54.314;10.022;2022-08-07T00:28:44;6.60;;;4.23;;
20454;SDS011;10386;54.314;10.022;2022-08-07T00:31:22;7.73;;;4.63;;
20454;SDS011;10386;54.314;10.022;2022-08-07T00:34:07;10.70;;;4.97;;
20454;SDS011;10386;54.314;10.022;2022-08-07T00:36:36;9.87;;;4.87;;
20454;SDS011;10386;54.314;10.022;2022-08-07T00:39:10;9.97;;;5.70;;
20454;SDS011;10386;54.314;10.022;2022-08-07T00:41:52;7.40;;;4.70;;
20454;SDS011;10386;54.314;10.022;2022-08-07T00:44:30;9.23;;;4.70;;
20454;SDS011;10386;54.314;10.022;2022-08-07T00:47:04;10.67;;;5.50;;
20454;SDS011;10386;54.314;10.022;2022-08-07T00:49:56;7.87;;;5.20;;
20454;SDS011;10386;54.314;10.022;2022-08-07T00:52:44;9.20;;;4.97;;
20454;SDS011;10386;54.314;10.022;2022-08-07T00:55:13;9.70;;;5.03;;
20454;SDS011;10386;54.314;10.022;2022-08-07T00:57:50;7.83;;;4.87;;
20454;SDS011;10386;54.314;10.022;2022-08-07T01:00:21;6.67;;;4.30;;
20454;SDS011;10386;54.314;10.022;2022-08-07T01:02:49;8.43;;;5.20;;
20454;SDS011;10386;54.314;10.022;2022-08-07T01:05:18;9.80;;;4.80;;
20454;SDS011;10386;54.314;10.022;2022-08-07T01:07:50;7.63;;;4.50;;
20454;SDS011;10386;54.314;10.022;2022-08-07T01:10:17;9.17;;;4.37;;
20454;SDS011;10386;54.314;10.022;2022-08-07T01:12:46;7.80;;;4.10;;
20454;SDS011;10386;54.314;10.022;2022-08-07T01:15:21;6.20;;;4.27;;
20454;SDS011;10386;54.314;10.022;2022-08-07T01:18:10;7.30;;;4.10;;
20454;SDS011;10386;54.314;10.022;2022-08-07T01:20:52;7.67;;;4.20;;
20454;SDS011;10386;54.314;10.022;2022-08-07T01:23:43;7.33;;;4.63;;
20454;SDS011;10386;54.314;10.022;2022-08-07T01:26:13;12.77;;;4.97;;
20454;SDS011;10386;54.314;10.022;2022-08-07T01:28:46;9.20;;;5.10;;
20454;SDS011;10386;54.314;10.022;2022-08-07T01:31:18;7.50;;;4.57;;
20454;SDS011;10386;54.314;10.022;2022-08-07T01:33:48;11.93;;;5.13;;
20454;SDS011;10386;54.314;10.022;2022-08-07T01:36:26;8.07;;;4.50;;
20454;SDS011;10386;54.314;10.022;2022-08-07T01:38:59;7.70;;;4.53;;
20454;SDS011;10386;54.314;10.022;2022-08-07T01:41:35;6.03;;;4.30;;
20454;SDS011;10386;54.314;10.022;2022-08-07T01:44:20;8.83;;;4.90;;
20454;SDS011;10386;54.314;10.022;2022-08-07T01:46:48;7.40;;;4.77;;
20454;SDS011;10386;54.314;10.022;2022-08-07T01:49:16;8.33;;;4.47;;
20454;SDS011;10386;54.314;10.022;2022-08-07T01:51:47;10.67;;;4.73;;
20454;SDS011;10386;54.314;10.022;2022-08-07T01:54:31;9.90;;;5.27;;
20454;SDS011;10386;54.314;10.022;2022-08-07T01:57:04;9.63;;;6.03;;
20454;SDS011;10386;54.314;10.022;2022-08-07T01:59:54;11.20;;;6.13;;
20454;SDS011;10386;54.314;10.022;2022-08-07T02:02:32;10.73;;;5.47;;
20454;SDS011;10386;54.314;10.022;2022-08-07T02:05:32;11.57;;;6.47;;
20454;SDS011;10386;54.314;10.022;2022-08-07T02:08:23;11.77;;;6.27;;
20454;SDS011;10386;54.314;10.022;2022-08-07T02:10:53;11.47;;;5.77;;
20454;SDS011;10386;54.314;10.022;2022-08-07T02:13:26;12.80;;;6.30;;
20454;SDS011;10386;54.314;10.022;2022-08-07T02:16:17;11.27;;;5.93;;
20454;SDS011;10386;54.314;10.022;2022-08-07T02:18:58;12.83;;;5.93;;
20454;SDS011;10386;54.314;10.022;2022-08-07T02:21:49;12.07;;;5.57;;
20454;SDS011;10386;54.314;10.022;2022-08-07T02:24:22;9.67;;;5.53;;
20454;SDS011;10386;54.314;10.022;2022-08-07T02:26:55;9.13;;;5.40;;
20454;SDS011;10386;54.314;10.022;2022-08-07T02:29:29;10.83;;;5.03;;
20454;SDS011;10386;54.314;10.022;2022-08-07T02:32:08;11.90;;;5.60;;
20454;SDS011;10386;54.314;10.022;2022-08-07T02:34:41;13.40;;;5.60;;
20454;SDS011;10386;54.314;10.022;2022-08-07T02:37:16;9.00;;;5.37;;
20454;SDS011;10386;54.314;10.022;2022-08-07T02:39:45;8.37;;;5.93;;
20454;SDS011;10386;54.314;10.022;2022-08-07T02:42:34;8.67;;;5.07;;
20454;SDS011;10386;54.314;10.022;2022-08-07T02:45:02;6.07;;;4.50;;
20454;SDS011;10386;54.314;10.022;2022-08-07T02:47:51;9.83;;;5.30;;
20454;SDS011;10386;54.314;10.022;2022-08-07T02:50:18;11.13;;;6.40;;
20454;SDS011;10386;54.314;10.022;2022-08-07T02:52:52;10.83;;;5.63;;
20454;SDS011;10386;54.314;10.022;2022-08-07T02:55:32;11.47;;;5.23;;
20454;SDS011;10386;54.314;10.022;2022-08-07T02:58:21;9.53;;;5.23;;
20454;SDS011;10386;54.314;10.022;2022-08-07T03:00:53;11.50;;;6.20;;
20454;SDS011;10386;54.314;10.022;2022-08-07T03:03:24;13.27;;;7.43;;
20454;SDS011;10386;54.314;10.022;2022-08-07T03:06:07;15.33;;;8.23;;
20454;SDS011;10386;54.314;10.022;2022-08-07T03:08:50;15.73;;;6.33;;
20454;SDS011;10386;54.314;10.022;2022-08-07T03:11:19;13.80;;;6.30;;
20454;SDS011;10386;54.314;10.022;2022-08-07T03:13:53;12.17;;;6.73;;
20454;SDS011;10386;54.314;10.022;2022-08-07T03:16:27;10.07;;;6.20;;
20454;SDS011;10386;54.314;10.022;2022-08-07T03:18:56;8.80;;;5.43;;
20454;SDS011;10386;54.314;10.022;2022-08-07T03:21:24;11.40;;;5.37;;
20454;SDS011;10386;54.314;10.022;2022-08-07T03:23:54;10.03;;;5.30;;
20454;SDS011;10386;54.314;10.022;2022-08-07T03:26:43;9.40;;;5.10;;
20454;SDS011;10386;54.314;10.022;2022-08-07T03:29:25;8.03;;;5.10;;
20454;SDS011;10386;54.314;10.022;2022-08-07T03:32:02;9.70;;;4.80;;
20454;SDS011;10386;54.314;10.022;2022-08-07T03:34:38;9.50;;;5.43;;
20454;SDS011;10386;54.314;10.022;2022-08-07T03:37:27;6.70;;;4.77;;
20454;SDS011;10386;54.314;10.022;2022-08-07T03:40:03;8.37;;;5.27;;
20454;SDS011;10386;54.314;10.022;2022-08-07T03:42:41;6.97;;;4.53;;
20454;SDS011;10386;54.314;10.022;2022-08-07T03:45:09;13.43;;;5.90;;
20454;SDS011;10386;54.314;10.022;2022-08-07T03:47:37;9.07;;;4.90;;
20454;SDS011;10386;54.314;10.022;2022-08-07T03:50:16;9.83;;;5.37;;
20454;SDS011;10386;54.314;10.022;2022-08-07T03:52:48;11.30;;;5.80;;
20454;SDS011;10386;54.314;10.022;2022-08-07T03:55:18;7.23;;;5.00;;
20454;SDS011;10386;54.314;10.022;2022-08-07T03:57:47;8.97;;;5.13;;
20454;SDS011;10386;54.314;10.022;2022-08-07T04:00:35;9.40;;;5.40;;
20454;SDS011;10386;54.314;10.022;2022-08-07T04:03:20;10.07;;;5.70;;
20454;SDS011;10386;54.314;10.022;2022-08-07T04:05:47;8.07;;;5.00;;
20454;SDS011;10386;54.314;10.022;2022-08-07T04:08:16;12.90;;;5.60;;
20454;SDS011;10386;54.314;10.022;2022-08-07T04:10:46;8.90;;;5.37;;
20454;SDS011;10386;54.314;10.022;2022-08-07T04:13:34;11.60;;;5.40;;
20454;SDS011;10386;54.314;10.022;2022-08-07T04:16:21;8.93;;;5.33;;
20454;SDS011;10386;54.314;10.022;2022-08-07T04:18:57;8.07;;;5.43;;
20454;SDS011;10386;54.314;10.022;2022-08-07T04:21:29;9.70;;;5.47;;
20454;SDS011;10386;54.314;10.022;2022-08-07T04:23:59;10.37;;;5.67;;
20454;SDS011;10386;54.314;10.022;2022-08-07T04:26:33;9.63;;;5.77;;
20454;SDS011;10386;54.314;10.022;2022-08-07T04:29:01;11.20;;;5.63;;
20454;SDS011;10386;54.314;10.022;2022-08-07T04:31:29;10.13;;;5.73;;
20454;SDS011;10386;54.314;10.022;2022-08-07T04:34:17;12.50;;;6.07;;
20454;SDS011;10386;54.314;10.022;2022-08-07T04:36:58;10.97;;;5.57;;
20454;SDS011;10386;54.314;10.022;2022-08-07T04:39:27;11.70;;;5.97;;
20454;SDS011;10386;54.314;10.022;2022-08-07T04:42:02;10.40;;;5.67;;
20454;SDS011;10386;54.314;10.022;2022-08-07T04:44:31;9.23;;;6.00;;
20454;SDS011;10386;54.314;10.022;2022-08-07T04:55:21;8.90;;;5.50;;
20454;SDS011;10386;54.314;10.022;2022-08-07T04:58:38;9.67;;;5.50;;
20454;SDS011;10386;54.314;10.022;2022-08-07T05:06:57;11.00;;;5.97;;
20454;SDS011;10386;54.314;10.022;2022-08-07T05:12:40;10.20;;;5.93;;
20454;SDS011;10386;54.314;10.022;2022-08-07T05:15:28;12.57;;;5.73;;
20454;SDS011;10386;54.314;10.022;2022-08-07T05:18:01;10.83;;;5.87;;
20454;SDS011;10386;54.314;10.022;2022-08-07T05:20:39;8.97;;;5.50;;
20454;SDS011;10386;54.314;10.022;2022-08-07T05:26:02;10.73;;;6.13;;
20454;SDS011;10386;54.314;10.022;2022-08-07T05:28:42;10.13;;;5.13;;
20454;SDS011;10386;54.314;10.022;2022-08-07T05:31:16;10.50;;;5.60;;
20454;SDS011;10386;54.314;10.022;2022-08-07T05:33:46;12.70;;;5.80;;
20454;SDS011;10386;54.314;10.022;2022-08-07T05:36:36;8.83;;;5.53;;
20454;SDS011;10386;54.314;10.022;2022-08-07T05:39:08;11.37;;;5.67;;
20454;SDS011;10386;54.314;10.022;2022-08-07T05:41:56;10.97;;;6.03;;
20454;SDS011;10386;54.314;10.022;2022-08-07T05:44:29;11.10;;;6.10;;
20454;SDS011;10386;54.314;10.022;2022-08-07T05:46:59;10.00;;;5.60;;
20454;SDS011;10386;54.314;10.022;2022-08-07T05:49:50;10.50;;;5.67;;
20454;SDS011;10386;54.314;10.022;2022-08-07T05:52:19;9.13;;;5.37;;
20454;SDS011;10386;54.314;10.022;2022-08-07T05:54:58;9.30;;;6.17;;
20454;SDS011;10386;54.314;10.022;2022-08-07T05:57:36;12.43;;;5.90;;
20454;SDS011;10386;54.314;10.022;2022-08-07T06:00:08;11.13;;;5.10;;
20454;SDS011;10386;54.314;10.022;2022-08-07T06:02:43;10.13;;;5.57;;
20454;SDS011;10386;54.314;10.022;2022-08-07T06:05:14;10.97;;;5.80;;
20454;SDS011;10386;54.314;10.022;2022-08-07T06:07:46;9.90;;;5.77;;
20454;SDS011;10386;54.314;10.022;2022-08-07T06:10:34;12.37;;;5.77;;
20454;SDS011;10386;54.314;10.022;2022-08-07T06:13:08;12.90;;;5.93;;
20454;SDS011;10386;54.314;10.022;2022-08-07T06:15:40;8.30;;;5.47;;
20454;SDS011;10386;54.314;10.022;2022-08-07T06:18:11;9.93;;;5.50;;
20454;SDS011;10386;54.314;10.022;2022-08-07T06:20:39;8.20;;;5.40;;
20454;SDS011;10386;54.314;10.022;2022-08-07T06:23:27;7.33;;;5.00;;
20454;SDS011;10386;54.314;10.022;2022-08-07T06:26:18;8.67;;;5.03;;
20454;SDS011;10386;54.314;10.022;2022-08-07T06:28:47;9.67;;;5.13;;
20454;SDS011;10386;54.314;10.022;2022-08-07T06:31:24;10.70;;;4.57;;
20454;SDS011;10386;54.314;10.022;2022-08-07T06:34:11;11.83;;;4.80;;
20454;SDS011;10386;54.314;10.022;2022-08-07T06:36:38;12.23;;;4.97;;
20454;SDS011;10386;54.314;10.022;2022-08-07T06:39:05;9.43;;;5.03;;
20454;SDS011;10386;54.314;10.022;2022-08-07T06:44:31;5.90;;;4.30;;
20454;SDS011;10386;54.314;10.022;2022-08-07T06:47:05;7.63;;;4.47;;
20454;SDS011;10386;54.314;10.022;2022-08-07T06:49:41;9.03;;;5.37;;
20454;SDS011;10386;54.314;10.022;2022-08-07T06:52:19;9.67;;;5.40;;
20454;SDS011;10386;54.314;10.022;2022-08-07T06:55:15;8.10;;;4.70;;
20454;SDS011;10386;54.314;10.022;2022-08-07T06:58:05;8.73;;;5.07;;
20454;SDS011;10386;54.314;10.022;2022-08-07T07:00:36;8.03;;;4.67;;
20454;SDS011;10386;54.314;10.022;2022-08-07T07:03:08;10.93;;;5.30;;
20454;SDS011;10386;54.314;10.022;2022-08-07T07:05:39;5.80;;;4.87;;
20454;SDS011;10386;54.314;10.022;2022-08-07T07:08:27;8.17;;;4.90;;
20454;SDS011;10386;54.314;10.022;2022-08-07T07:10:58;7.47;;;4.03;;
20454;SDS011;10386;54.314;10.022;2022-08-07T07:13:33;6.57;;;4.60;;
20454;SDS011;10386;54.314;10.022;2022-08-07T07:16:23;6.73;;;4.93;;
20454;SDS011;10386;54.314;10.022;2022-08-07T07:19:00;7.20;;;4.70;;
20454;SDS011;10386;54.314;10.022;2022-08-07T07:21:50;7.97;;;4.93;;
20454;SDS011;10386;54.314;10.022;2022-08-07T07:24:37;9.10;;;4.53;;
20454;SDS011;10386;54.314;10.022;2022-08-07T07:27:13;12.60;;;5.20;;
20454;SDS011;10386;54.314;10.022;2022-08-07T07:29:44;6.30;;;4.43;;
20454;SDS011;10386;54.314;10.022;2022-08-07T07:32:35;6.40;;;4.80;;
20454;SDS011;10386;54.314;10.022;2022-08-07T07:35:08;7.23;;;5.13;;
20454;SDS011;10386;54.314;10.022;2022-08-07T07:37:38;8.93;;;5.00;;
20454;SDS011;10386;54.314;10.022;2022-08-07T07:40:18;11.17;;;6.00;;
20454;SDS011;10386;54.314;10.022;2022-08-07T07:42:52;8.73;;;5.73;;
20454;SDS011;10386;54.314;10.022;2022-08-07T07:45:24;8.43;;;5.47;;
20454;SDS011;10386;54.314;10.022;2022-08-07T07:48:14;6.80;;;4.90;;
20454;SDS011;10386;54.314;10.022;2022-08-07T07:51:02;7.47;;;4.87;;
20454;SDS011;10386;54.314;10.022;2022-08-07T07:53:37;9.83;;;5.43;;
20454;SDS011;10386;54.314;10.022;2022-08-07T07:56:18;6.93;;;5.00;;
20454;SDS011;10386;54.314;10.022;2022-08-07T07:58:56;7.20;;;4.90;;
20454;SDS011;10386;54.314;10.022;2022-08-07T08:01:27;9.50;;;5.43;;
20454;SDS011;10386;54.314;10.022;2022-08-07T08:04:17;8.23;;;4.97;;
20454;SDS011;10386;54.314;10.022;2022-08-07T08:06:50;10.50;;;5.43;;
20454;SDS011;10386;54.314;10.022;2022-08-07T08:09:20;8.80;;;4.50;;
20454;SDS011;10386;54.314;10.022;2022-08-07T08:11:55;7.77;;;4.50;;
20454;SDS011;10386;54.314;10.022;2022-08-07T08:14:31;8.80;;;4.83;;
20454;SDS011;10386;54.314;10.022;2022-08-07T08:17:03;8.87;;;4.80;;
20454;SDS011;10386;54.314;10.022;2022-08-07T08:19:57;6.60;;;4.90;;
20454;SDS011;10386;54.314;10.022;2022-08-07T08:22:47;7.80;;;4.93;;
20454;SDS011;10386;54.314;10.022;2022-08-07T08:25:36;8.07;;;4.47;;
20454;SDS011;10386;54.314;10.022;2022-08-07T08:28:30;6.87;;;4.30;;
20454;SDS011;10386;54.314;10.022;2022-08-07T08:31:04;7.13;;;4.47;;
20454;SDS011;10386;54.314;10.022;2022-08-07T08:33:39;9.67;;;4.30;;
20454;SDS011;10386;54.314;10.022;2022-08-07T08:36:15;6.27;;;4.30;;
20454;SDS011;10386;54.314;10.022;2022-08-07T08:38:55;6.57;;;4.23;;
20454;SDS011;10386;54.314;10.022;2022-08-07T08:44:34;6.27;;;3.93;;
20454;SDS011;10386;54.314;10.022;2022-08-07T08:50:21;7.40;;;4.60;;
20454;SDS011;10386;54.314;10.022;2022-08-07T08:53:05;9.57;;;3.93;;
20454;SDS011;10386;54.314;10.022;2022-08-07T08:55:39;9.67;;;4.40;;
20454;SDS011;10386;54.314;10.022;2022-08-07T09:01:12;5.53;;;3.73;;
20454;SDS011;10386;54.314;10.022;2022-08-07T09:09:43;11.10;;;4.57;;
20454;SDS011;10386;54.314;10.022;2022-08-07T09:12:26;5.80;;;4.03;;
20454;SDS011;10386;54.314;10.022;2022-08-07T09:15:17;4.83;;;4.00;;
20454;SDS011;10386;54.314;10.022;2022-08-07T09:19:19;6.33;;;3.97;;
20454;SDS011;10386;54.314;10.022;2022-08-07T09:22:09;6.53;;;4.20;;
20454;SDS011;10386;54.314;10.022;2022-08-07T09:25:11;8.33;;;4.27;;
20454;SDS011;10386;54.314;10.022;2022-08-07T09:33:26;4.73;;;3.77;;
20454;SDS011;10386;54.314;10.022;2022-08-07T09:54:02;6.82;;;4.10;;
20454;SDS011;10386;54.314;10.022;2022-08-07T09:56:50;6.32;;;3.90;;
20454;SDS011;10386;54.314;10.022;2022-08-07T10:05:34;4.90;;;3.13;;
20454;SDS011;10386;54.314;10.022;2022-08-07T10:22:31;5.70;;;4.00;;
20454;SDS011;10386;54.314;10.022;2022-08-07T10:28:11;5.75;;;4.00;;
20454;SDS011;10386;54.314;10.022;2022-08-07T10:37:17;6.72;;;3.47;;
20454;SDS011;10386;54.314;10.022;2022-08-07T10:45:25;5.05;;;3.58;;
20454;SDS011;10386;54.314;10.022;2022-08-07T10:51:04;6.07;;;3.90;;
20454;SDS011;10386;54.314;10.022;2022-08-07T11:02:22;8.70;;;3.90;;
20454;SDS011;10386;54.314;10.022;2022-08-07T11:11:22;6.57;;;4.30;;
20454;SDS011;10386;54.314;10.022;2022-08-07T11:13:52;10.13;;;4.60;;
20454;SDS011;10386;54.314;10.022;2022-08-07T11:17:00;5.83;;;4.40;;
20454;SDS011;10386;54.314;10.022;2022-08-07T11:23:02;6.83;;;4.27;;
20454;SDS011;10386;54.314;10.022;2022-08-07T11:25:53;6.60;;;4.33;;
20454;SDS011;10386;54.314;10.022;2022-08-07T11:32:10;6.80;;;4.73;;
20454;SDS011;10386;54.314;10.022;2022-08-07T12:03:47;5.55;;;4.00;;
20454;SDS011;10386;54.314;10.022;2022-08-07T12:06:27;7.55;;;4.10;;
20454;SDS011;10386;54.314;10.022;2022-08-07T12:12:23;5.13;;;4.25;;
20454;SDS011;10386;54.314;10.022;2022-08-07T12:20:51;6.90;;;3.97;;
20454;SDS011;10386;54.314;10.022;2022-08-07T12:26:33;4.80;;;3.80;;
20454;SDS011;10386;54.314;10.022;2022-08-07T12:32:08;6.85;;;3.83;;
20454;SDS011;10386;54.314;10.022;2022-08-07T12:34:43;5.35;;;3.50;;
20454;SDS011;10386;54.314;10.022;2022-08-07T12:37:21;5.80;;;3.85;;
20454;SDS011;10386;54.314;10.022;2022-08-07T12:40:11;8.50;;;3.70;;
20454;SDS011;10386;54.314;10.022;2022-08-07T12:43:02;6.18;;;3.22;;
20454;SDS011;10386;54.314;10.022;2022-08-07T12:45:36;5.55;;;3.65;;
20454;SDS011;10386;54.314;10.022;2022-08-07T12:51:20;6.95;;;3.70;;
20454;SDS011;10386;54.314;10.022;2022-08-07T12:57:04;5.10;;;3.08;;
20454;SDS011;10386;54.314;10.022;2022-08-07T12:59:35;5.63;;;3.05;;
20454;SDS011;10386;54.314;10.022;2022-08-07T13:05:35;8.90;;;3.50;;
20454;SDS011;10386;54.314;10.022;2022-08-07T13:08:37;3.83;;;3.20;;
20454;SDS011;10386;54.314;10.022;2022-08-07T13:20:14;5.07;;;3.55;;
20454;SDS011;10386;54.314;10.022;2022-08-07T13:22:55;3.75;;;3.45;;
20454;SDS011;10386;54.314;10.022;2022-08-07T13:25:58;5.30;;;3.60;;
20454;SDS011;10386;54.314;10.022;2022-08-07T13:28:55;4.57;;;3.67;;
20454;SDS011;10386;54.314;10.022;2022-08-07T13:31:29;5.60;;;3.38;;
20454;SDS011;10386;54.314;10.022;2022-08-07T13:37:07;3.83;;;3.42;;
20454;SDS011;10386;54.314;10.022;2022-08-07T13:43:09;6.90;;;3.50;;
20454;SDS011;10386;54.314;10.022;2022-08-07T13:45:44;7.40;;;3.80;;
20454;SDS011;10386;54.314;10.022;2022-08-07T13:48:33;10.52;;;3.75;;
20454;SDS011;10386;54.314;10.022;2022-08-07T13:51:05;7.25;;;3.70;;
20454;SDS011;10386;54.314;10.022;2022-08-07T13:53:54;9.05;;;3.67;;
20454;SDS011;10386;54.314;10.022;2022-08-07T13:56:28;8.90;;;3.47;;
20454;SDS011;10386;54.314;10.022;2022-08-07T13:59:11;12.65;;;3.83;;
20454;SDS011;10386;54.314;10.022;2022-08-07T14:01:53;5.57;;;3.65;;
20454;SDS011;10386;54.314;10.022;2022-08-07T14:04:30;4.72;;;3.05;;
20454;SDS011;10386;54.314;10.022;2022-08-07T14:07:04;8.38;;;3.17;;
20454;SDS011;10386;54.314;10.022;2022-08-07T14:09:35;7.53;;;3.25;;
20454;SDS011;10386;54.314;10.022;2022-08-07T14:18:13;3.85;;;3.10;;
20454;SDS011;10386;54.314;10.022;2022-08-07T14:21:42;5.50;;;2.75;;
20454;SDS011;10386;54.314;10.022;2022-08-07T14:24:38;5.13;;;3.00;;
20454;SDS011;10386;54.314;10.022;2022-08-07T14:27:09;3.15;;;2.75;;
20454;SDS011;10386;54.314;10.022;2022-08-07T14:30:00;5.78;;;2.88;;
20454;SDS011;10386;54.314;10.022;2022-08-07T14:32:41;4.05;;;2.80;;
20454;SDS011;10386;54.314;10.022;2022-08-07T14:35:17;3.85;;;3.25;;
20454;SDS011;10386;54.314;10.022;2022-08-07T14:38:09;3.28;;;2.78;;
20454;SDS011;10386;54.314;10.022;2022-08-07T14:40:58;4.20;;;2.40;;
20454;SDS011;10386;54.314;10.022;2022-08-07T14:43:30;4.13;;;2.15;;
20454;SDS011;10386;54.314;10.022;2022-08-07T14:46:53;4.05;;;2.60;;
20454;SDS011;10386;54.314;10.022;2022-08-07T14:49:40;4.80;;;2.50;;
20454;SDS011;10386;54.314;10.022;2022-08-07T14:52:29;4.20;;;2.70;;
20454;SDS011;10386;54.314;10.022;2022-08-07T14:54:59;3.53;;;2.60;;
20454;SDS011;10386;54.314;10.022;2022-08-07T14:57:29;3.22;;;2.33;;
20454;SDS011;10386;54.314;10.022;2022-08-07T15:00:22;2.72;;;2.30;;
20454;SDS011;10386;54.314;10.022;2022-08-07T15:02:56;7.82;;;2.88;;
20454;SDS011;10386;54.314;10.022;2022-08-07T15:05:48;9.07;;;2.58;;
20454;SDS011;10386;54.314;10.022;2022-08-07T15:08:31;7.22;;;2.60;;
20454;SDS011;10386;54.314;10.022;2022-08-07T15:11:17;3.67;;;2.47;;
20454;SDS011;10386;54.314;10.022;2022-08-07T15:14:07;4.00;;;2.13;;
20454;SDS011;10386;54.314;10.022;2022-08-07T15:16:45;3.40;;;2.33;;
20454;SDS011;10386;54.314;10.022;2022-08-07T15:19:27;2.55;;;2.33;;
20454;SDS011;10386;54.314;10.022;2022-08-07T15:22:24;4.88;;;2.00;;
20454;SDS011;10386;54.314;10.022;2022-08-07T15:24:59;2.75;;;2.17;;
20454;SDS011;10386;54.314;10.022;2022-08-07T15:27:50;7.25;;;2.67;;
20454;SDS011;10386;54.314;10.022;2022-08-07T15:30:43;2.35;;;2.17;;
20454;SDS011;10386;54.314;10.022;2022-08-07T15:33:32;2.92;;;2.42;;
20454;SDS011;10386;54.314;10.022;2022-08-07T15:36:01;2.35;;;2.15;;
20454;SDS011;10386;54.314;10.022;2022-08-07T15:38:30;3.17;;;2.15;;
20454;SDS011;10386;54.314;10.022;2022-08-07T15:41:21;3.00;;;2.20;;
20454;SDS011;10386;54.314;10.022;2022-08-07T15:44:10;4.97;;;2.78;;
20454;SDS011;10386;54.314;10.022;2022-08-07T15:46:40;2.67;;;2.15;;
20454;SDS011;10386;54.314;10.022;2022-08-07T15:49:17;2.38;;;2.10;;
20454;SDS011;10386;54.314;10.022;2022-08-07T15:52:13;1.98;;;1.88;;
20454;SDS011;10386;54.314;10.022;2022-08-07T15:54:57;2.28;;;2.05;;
20454;SDS011;10386;54.314;10.022;2022-08-07T15:57:28;3.45;;;2.17;;
20454;SDS011;10386;54.314;10.022;2022-08-07T16:00:14;4.00;;;2.25;;
20454;SDS011;10386;54.314;10.022;2022-08-07T16:03:03;5.18;;;2.25;;
20454;SDS011;10386;54.314;10.022;2022-08-07T16:05:55;2.22;;;2.03;;
20454;SDS011;10386;54.314;10.022;2022-08-07T16:08:24;2.42;;;2.08;;
20454;SDS011;10386;54.314;10.022;2022-08-07T16:11:04;2.40;;;2.20;;
20454;SDS011;10386;54.314;10.022;2022-08-07T16:14:12;4.40;;;2.25;;
20454;SDS011;10386;54.314;10.022;2022-08-07T16:16:54;4.15;;;2.50;;
20454;SDS011;10386;54.314;10.022;2022-08-07T16:32:01;3.92;;;2.30;;
20454;SDS011;10386;54.314;10.022;2022-08-07T16:43:14;2.53;;;2.22;;
20454;SDS011;10386;54.314;10.022;2022-08-07T16:58:41;2.15;;;2.00;;
20454;SDS011;10386;54.314;10.022;2022-08-07T17:04:21;2.95;;;2.28;;
20454;SDS011;10386;54.314;10.022;2022-08-07T17:06:56;3.75;;;2.17;;
20454;SDS011;10386;54.314;10.022;2022-08-07T17:09:32;2.42;;;2.22;;
20454;SDS011;10386;54.314;10.022;2022-08-07T17:20:58;2.40;;;2.15;;
20454;SDS011;10386;54.314;10.022;2022-08-07T17:23:58;3.20;;;2.10;;
20454;SDS011;10386;54.314;10.022;2022-08-07T17:38:22;4.13;;;1.92;;
20454;SDS011;10386;54.314;10.022;2022-08-07T17:41:01;1.98;;;1.60;;
20454;SDS011;10386;54.314;10.022;2022-08-07T17:43:55;1.83;;;1.73;;
20454;SDS011;10386;54.314;10.022;2022-08-07T17:46:49;2.05;;;1.90;;
20454;SDS011;10386;54.314;10.022;2022-08-07T17:49:21;5.43;;;2.10;;
20454;SDS011;10386;54.314;10.022;2022-08-07T17:52:12;2.42;;;1.98;;
20454;SDS011;10386;54.314;10.022;2022-08-07T17:55:14;3.55;;;2.20;;
20454;SDS011;10386;54.314;10.022;2022-08-07T17:58:07;3.10;;;2.00;;
20454;SDS011;10386;54.314;10.022;2022-08-07T18:00:56;2.75;;;2.10;;
20454;SDS011;10386;54.314;10.022;2022-08-07T18:03:50;2.30;;;2.10;;
20454;SDS011;10386;54.314;10.022;2022-08-07T18:06:34;2.67;;;2.13;;
20454;SDS011;10386;54.314;10.022;2022-08-07T18:09:08;5.70;;;2.38;;
20454;SDS011;10386;54.314;10.022;2022-08-07T18:13:02;4.27;;;2.27;;
20454;SDS011;10386;54.314;10.022;2022-08-07T18:15:24;3.55;;;2.05;;
20454;SDS011;10386;54.314;10.022;2022-08-07T18:18:00;2.80;;;2.10;;
20454;SDS011;10386;54.314;10.022;2022-08-07T18:20:59;2.63;;;2.30;;
20454;SDS011;10386;54.314;10.022;2022-08-07T18:32:39;2.63;;;2.20;;
20454;SDS011;10386;54.314;10.022;2022-08-07T18:44:21;2.60;;;2.40;;
20454;SDS011;10386;54.314;10.022;2022-08-07T18:49:49;4.13;;;2.40;;
20454;SDS011;10386;54.314;10.022;2022-08-07T18:53:06;2.87;;;2.30;;
20454;SDS011;10386;54.314;10.022;2022-08-07T18:55:51;4.70;;;2.80;;
20454;SDS011;10386;54.314;10.022;2022-08-07T19:01:02;4.60;;;3.00;;
20454;SDS011;10386;54.314;10.022;2022-08-07T19:04:00;3.93;;;3.00;;
20454;SDS011;10386;54.314;10.022;2022-08-07T19:06:46;4.07;;;3.37;;
20454;SDS011;10386;54.314;10.022;2022-08-07T19:15:25;4.43;;;3.20;;
20454;SDS011;10386;54.314;10.022;2022-08-07T19:18:40;5.73;;;3.60;;
20454;SDS011;10386;54.314;10.022;2022-08-07T19:24:14;4.10;;;3.70;;
20454;SDS011;10386;54.314;10.022;2022-08-07T19:26:57;9.00;;;4.10;;
20454;SDS011;10386;54.314;10.022;2022-08-07T19:29:50;5.97;;;3.20;;
20454;SDS011;10386;54.314;10.022;2022-08-07T19:32:41;5.47;;;3.07;;
20454;SDS011;10386;54.314;10.022;2022-08-07T19:35:19;4.90;;;2.80;;
20454;SDS011;10386;54.314;10.022;2022-08-07T19:37:52;3.97;;;2.50;;
20454;SDS011;10386;54.314;10.022;2022-08-07T19:40:25;3.50;;;2.90;;
20454;SDS011;10386;54.314;10.022;2022-08-07T19:43:00;8.13;;;3.00;;
20454;SDS011;10386;54.314;10.022;2022-08-07T19:45:36;5.47;;;2.90;;
20454;SDS011;10386;54.314;10.022;2022-08-07T19:48:32;4.57;;;3.07;;
20454;SDS011;10386;54.314;10.022;2022-08-07T19:51:09;5.40;;;2.70;;
20454;SDS011;10386;54.314;10.022;2022-08-07T19:54:00;3.07;;;2.80;;
20454;SDS011;10386;54.314;10.022;2022-08-07T19:56:50;3.57;;;2.97;;
20454;SDS011;10386;54.314;10.022;2022-08-07T19:59:41;4.27;;;2.80;;
20454;SDS011;10386;54.314;10.022;2022-08-07T20:02:13;5.07;;;3.00;;
20454;SDS011;10386;54.314;10.022;2022-08-07T20:04:56;4.87;;;3.00;;
20454;SDS011;10386;54.314;10.022;2022-08-07T20:07:33;7.80;;;3.20;;
20454;SDS011;10386;54.314;10.022;2022-08-07T20:10:18;5.60;;;3.13;;
20454;SDS011;10386;54.314;10.022;2022-08-07T20:13:15;3.23;;;2.90;;
20454;SDS011;10386;54.314;10.022;2022-08-07T20:15:52;4.87;;;2.83;;
20454;SDS011;10386;54.314;10.022;2022-08-07T20:18:23;5.60;;;2.87;;
20454;SDS011;10386;54.314;10.022;2022-08-07T20:21:01;7.63;;;2.93;;
20454;SDS011;10386;54.314;10.022;2022-08-07T20:23:48;4.07;;;2.90;;
20454;SDS011;10386;54.314;10.022;2022-08-07T20:26:25;4.80;;;2.80;;
20454;SDS011;10386;54.314;10.022;2022-08-07T20:28:59;6.80;;;3.40;;
20454;SDS011;10386;54.314;10.022;2022-08-07T20:31:48;4.20;;;2.80;;
20454;SDS011;10386;54.314;10.022;2022-08-07T20:34:16;4.57;;;3.03;;